createdAt,value
2022-08-14T00:00:29.761Z,94234.25
2022-08-14T00:01:26.578Z,94259.16
2022-08-14T00:02:31.193Z,94250.56
2022-08-14T00:03:31.899Z,94259.09
2022-08-14T00:04:35.255Z,94265.13
2022-08-14T00:05:35.562Z,94245.09
2022-08-14T00:06:32.529Z,94242.81
2022-08-14T00:07:29.563Z,94251.19
2022-08-14T00:08:45.098Z,94254.91
2022-08-14T00:09:55.706Z,94174.94
2022-08-14T00:11:00.186Z,94198.06
2022-08-14T00:11:58.569Z,94227.19
2022-08-14T00:12:56.662Z,94155.91
2022-08-14T00:13:54.396Z,94211.53
2022-08-14T00:14:54.945Z,94224.03
2022-08-14T00:15:52.147Z,94223.22
2022-08-14T00:16:50.742Z,94192.13
2022-08-14T00:17:53.812Z,94196.09
2022-08-14T00:19:05.440Z,94236.41
2022-08-14T00:20:08.905Z,94226.59
2022-08-14T00:21:11.358Z,94237.31
2022-08-14T00:22:08.355Z,94219.34
2022-08-14T00:23:16.341Z,94228.41
2022-08-14T00:24:14.281Z,94223.09
2022-08-14T00:25:20.513Z,94233.63
2022-08-14T00:26:21.812Z,94219.44
2022-08-14T00:27:20.730Z,94239.19
2022-08-14T00:28:17.900Z,94254.91
2022-08-14T00:29:15.242Z,94228.28
2022-08-14T00:30:17.328Z,94242.16
2022-08-14T00:31:14.919Z,94247.91
2022-08-14T00:32:51.948Z,94246.25
2022-08-14T00:33:51.683Z,94218.50
2022-08-14T00:34:48.188Z,94235.34
2022-08-14T00:36:37.264Z,94212.91
2022-08-14T00:37:05.562Z,94238.09
2022-08-14T00:38:02.641Z,94246.81
2022-08-14T00:39:06.473Z,94220.22
2022-08-14T00:40:19.062Z,94236.69
2022-08-14T00:41:23.835Z,94238.44
2022-08-14T00:42:56.002Z,94240.34
2022-08-14T00:43:41.780Z,94230.56
2022-08-14T00:44:40.118Z,94236.41
2022-08-14T00:45:39.724Z,94117.16
2022-08-14T00:46:38.960Z,94218.47
2022-08-14T00:47:37.575Z,94248.72
2022-08-14T00:48:41.702Z,94234.34
2022-08-14T00:49:43.170Z,94234.00
2022-08-14T00:50:40.443Z,94226.16
2022-08-14T00:51:38.721Z,94226.63
2022-08-14T00:52:38.779Z,94209.19
2022-08-14T00:53:39.897Z,94229.53
2022-08-14T00:54:41.216Z,94229.06
2022-08-14T00:55:40.613Z,94195.66
2022-08-14T00:56:39.826Z,94214.97
2022-08-14T00:57:38.203Z,94221.22
2022-08-14T00:58:44.911Z,94194.97
2022-08-14T00:59:42.218Z,94214.38
2022-08-14T01:00:47.407Z,94158.78
2022-08-14T01:01:48.696Z,94183.38
2022-08-14T01:02:46.285Z,94208.31
2022-08-14T01:03:53.518Z,94154.78
2022-08-14T01:04:55.063Z,94207.78
2022-08-14T01:05:53.016Z,94189.19
2022-08-14T01:06:52.416Z,94183.84
2022-08-14T01:07:57.015Z,94199.75
2022-08-14T01:08:59.415Z,94190.13
2022-08-14T01:10:01.874Z,94187.25
2022-08-14T01:10:59.285Z,94216.19
2022-08-14T01:12:02.738Z,94202.88
2022-08-14T01:13:01.385Z,94194.41
2022-08-14T01:14:00.836Z,94068.19
2022-08-14T01:15:00.274Z,94209.97
2022-08-14T01:16:03.532Z,94172.00
2022-08-14T01:17:00.411Z,94166.28
2022-08-14T01:18:16.084Z,94203.03
2022-08-14T01:19:36.978Z,94193.16
2022-08-14T01:20:52.921Z,94199.78
2022-08-14T01:21:53.275Z,94186.28
2022-08-14T01:22:51.532Z,94191.03
2022-08-14T01:23:51.606Z,94191.63
2022-08-14T01:24:51.051Z,94191.72
2022-08-14T01:25:51.068Z,94177.72
2022-08-14T01:26:50.674Z,94186.00
2022-08-14T01:27:56.767Z,94161.03
2022-08-14T01:28:58.498Z,94202.84
2022-08-14T01:30:03.563Z,94201.56
2022-08-14T01:31:02.299Z,94201.13
2022-08-14T01:32:01.799Z,94197.13
2022-08-14T01:33:02.926Z,94192.41
2022-08-14T01:35:17.634Z,94167.72
2022-08-14T01:36:03.911Z,94189.34
2022-08-14T01:36:39.577Z,94108.19
2022-08-14T01:37:38.182Z,94199.69
2022-08-14T01:38:48.811Z,94214.13
2022-08-14T01:39:45.913Z,94169.22
2022-08-14T01:40:42.689Z,94167.84
2022-08-14T01:41:43.231Z,94202.34
2022-08-14T01:42:42.961Z,94183.13
2022-08-14T01:43:56.075Z,94205.31
2022-08-14T01:44:55.377Z,94150.91
2022-08-14T01:45:58.004Z,94204.69
2022-08-14T01:47:16.534Z,94190.88
2022-08-14T01:48:20.844Z,94161.78
2022-08-14T01:49:17.802Z,94155.69
2022-08-14T01:50:18.312Z,94200.25
2022-08-14T01:51:26.362Z,94178.97
2022-08-14T01:52:57.632Z,94193.03
2022-08-14T01:53:42.237Z,94186.97
2022-08-14T01:54:39.277Z,94179.00
2022-08-14T01:55:36.961Z,94192.97
2022-08-14T01:56:42.863Z,94166.44
2022-08-14T01:57:56.598Z,94141.75
2022-08-14T01:58:58.725Z,94180.47
2022-08-14T01:59:57.000Z,94194.00
2022-08-14T02:00:56.358Z,94200.91
2022-08-14T02:01:59.171Z,94168.56
2022-08-14T02:02:58.267Z,94165.41
2022-08-14T02:03:57.236Z,94155.88
2022-08-14T02:04:57.520Z,94189.25
2022-08-14T02:05:58.393Z,94201.44
2022-08-14T02:06:55.277Z,94197.66
2022-08-14T02:07:55.998Z,94181.78
2022-08-14T02:09:17.158Z,94197.41
2022-08-14T02:10:19.390Z,94135.47
2022-08-14T02:11:25.777Z,94197.41
2022-08-14T02:12:26.500Z,94173.00
2022-08-14T02:13:26.286Z,94196.09
2022-08-14T02:14:31.014Z,94214.25
2022-08-14T02:15:28.638Z,94152.88
2022-08-14T02:16:29.651Z,94191.13
2022-08-14T02:17:28.717Z,94193.91
2022-08-14T02:18:32.663Z,94188.81
2022-08-14T02:19:32.259Z,94202.09
2022-08-14T02:20:33.902Z,94200.72
2022-08-14T02:21:43.797Z,94185.75
2022-08-14T02:22:47.938Z,94147.50
2022-08-14T02:23:53.624Z,94189.59
2022-08-14T02:24:51.321Z,94185.66
2022-08-14T02:25:54.683Z,94164.97
2022-08-14T02:28:18.608Z,94185.06
2022-08-14T02:28:23.109Z,94183.66
2022-08-14T02:29:59.701Z,94187.69
2022-08-14T02:30:47.938Z,94194.41
2022-08-14T02:31:55.985Z,94175.75
2022-08-14T02:32:55.025Z,94136.03
2022-08-14T02:33:56.419Z,94090.66
2022-08-14T02:34:53.516Z,94175.75
2022-08-14T02:35:53.442Z,94149.75
2022-08-14T02:37:06.587Z,94178.97
2022-08-14T02:38:04.753Z,94150.34
2022-08-14T02:39:01.486Z,94173.81
2022-08-14T02:39:58.742Z,94111.25
2022-08-14T02:40:55.523Z,94184.94
2022-08-14T02:41:58.135Z,94167.78
2022-08-14T02:42:57.784Z,94179.88
2022-08-14T02:43:54.781Z,94155.72
2022-08-14T02:44:57.896Z,94187.69
2022-08-14T02:45:54.731Z,94166.44
2022-08-14T02:46:53.541Z,94184.53
2022-08-14T02:47:58.767Z,94180.25
2022-08-14T02:49:02.508Z,94092.00
2022-08-14T02:50:01.823Z,94189.34
2022-08-14T02:51:01.302Z,94184.81
2022-08-14T02:51:58.760Z,94163.22
2022-08-14T02:53:14.979Z,94182.31
2022-08-14T02:54:13.010Z,94197.19
2022-08-14T02:55:10.214Z,94103.06
2022-08-14T02:56:30.819Z,94161.09
2022-08-14T02:57:40.461Z,94179.13
2022-08-14T02:58:41.837Z,94199.13
2022-08-14T02:59:43.290Z,94159.59
2022-08-14T03:00:40.493Z,94186.84
2022-08-14T03:01:50.563Z,94153.78
2022-08-14T03:02:58.995Z,94183.16
2022-08-14T03:03:56.506Z,94196.78
2022-08-14T03:04:54.403Z,94194.09
2022-08-14T03:05:54.215Z,94180.31
2022-08-14T03:07:06.515Z,94172.41
2022-08-14T03:08:07.822Z,94085.84
2022-08-14T03:09:05.689Z,94198.75
2022-08-14T03:10:27.695Z,94107.09
2022-08-14T03:11:22.353Z,94163.28
2022-08-14T03:12:30.899Z,94190.59
2022-08-14T03:13:29.619Z,94183.97
2022-08-14T03:14:27.746Z,94181.28
2022-08-14T03:15:24.598Z,94095.19
2022-08-14T03:16:26.960Z,94184.03
2022-08-14T03:17:24.164Z,94171.56
2022-08-14T03:18:32.057Z,94189.28
2022-08-14T03:19:29.455Z,94140.56
2022-08-14T03:20:30.260Z,94143.97
2022-08-14T03:21:31.424Z,94190.22
2022-08-14T03:22:31.630Z,94191.97
2022-08-14T03:23:28.590Z,94192.28
2022-08-14T03:24:25.592Z,94077.97
2022-08-14T03:25:23.138Z,94192.00
2022-08-14T03:26:30.287Z,94139.69
2022-08-14T03:27:35.377Z,94105.56
2022-08-14T03:28:48.701Z,94183.88
2022-08-14T03:29:45.435Z,94200.09
2022-08-14T03:30:42.855Z,94152.84
2022-08-14T03:31:42.109Z,94189.38
2022-08-14T03:32:40.022Z,94196.69
2022-08-14T03:33:40.817Z,94205.63
2022-08-14T03:34:47.803Z,94208.94
2022-08-14T03:36:05.677Z,94162.50
2022-08-14T03:37:51.892Z,94230.19
2022-08-14T03:39:15.879Z,94214.03
2022-08-14T03:39:44.065Z,94201.31
2022-08-14T03:40:42.300Z,94164.22
2022-08-14T03:41:40.489Z,94200.78
2022-08-14T03:42:39.462Z,94176.78
2022-08-14T03:43:36.196Z,94213.28
2022-08-14T03:45:28.020Z,94198.13
2022-08-14T03:45:52.023Z,94200.81
2022-08-14T03:46:54.990Z,94162.81
2022-08-14T03:47:56.084Z,94193.88
2022-08-14T03:48:55.504Z,94179.16
2022-08-14T03:49:52.273Z,94164.22
2022-08-14T03:50:53.854Z,94202.47
2022-08-14T03:51:53.055Z,94170.75
2022-08-14T03:52:55.986Z,94204.00
2022-08-14T03:54:00.240Z,94195.47
2022-08-14T03:54:57.046Z,94201.06
2022-08-14T03:55:59.066Z,94198.63
2022-08-14T03:57:02.476Z,94188.47
2022-08-14T03:58:00.359Z,94190.63
2022-08-14T03:59:02.334Z,94191.00
2022-08-14T04:00:02.179Z,94196.59
2022-08-14T04:01:02.484Z,94119.63
2022-08-14T04:02:01.854Z,94190.66
2022-08-14T04:02:59.317Z,94198.16
2022-08-14T04:04:06.140Z,94158.94
2022-08-14T04:05:12.986Z,94199.13
2022-08-14T04:06:10.579Z,94184.88
2022-08-14T04:07:11.040Z,94179.53
2022-08-14T04:08:29.041Z,94205.47
2022-08-14T04:09:28.472Z,94198.38
2022-08-14T04:10:31.963Z,94184.91
2022-08-14T04:11:29.669Z,94198.47
2022-08-14T04:12:26.862Z,94205.91
2022-08-14T04:13:24.041Z,94213.78
2022-08-14T04:14:20.942Z,94206.47
2022-08-14T04:15:21.240Z,94202.88
2022-08-14T04:16:23.547Z,94203.09
2022-08-14T04:17:20.297Z,94187.69
2022-08-14T04:18:19.341Z,94202.53
2022-08-14T04:19:20.571Z,94201.44
2022-08-14T04:20:25.443Z,94195.03
2022-08-14T04:21:28.183Z,94204.66
2022-08-14T04:22:25.300Z,94211.25
2022-08-14T04:23:23.786Z,94204.88
2022-08-14T04:24:30.754Z,94206.03
2022-08-14T04:25:36.420Z,94230.56
2022-08-14T04:26:42.257Z,94206.31
2022-08-14T04:28:01.757Z,94218.53
2022-08-14T04:29:06.997Z,94189.66
2022-08-14T04:30:12.425Z,94202.81
2022-08-14T04:32:58.903Z,94179.97
2022-08-14T04:33:00.160Z,94204.81
2022-08-14T04:33:57.084Z,94177.91
2022-08-14T04:34:54.885Z,94208.66
2022-08-14T04:35:56.576Z,94173.44
2022-08-14T04:37:12.674Z,94208.19
2022-08-14T04:38:36.520Z,94203.13
2022-08-14T04:40:10.415Z,94171.38
2022-08-14T04:41:30.216Z,94185.81
2022-08-14T04:42:47.400Z,94186.38
2022-08-14T04:43:48.486Z,94179.25
2022-08-14T04:44:51.470Z,94208.22
2022-08-14T04:45:53.043Z,94204.94
2022-08-14T04:47:08.479Z,94082.31
2022-08-14T04:48:36.771Z,94194.31
2022-08-14T04:49:38.361Z,94203.94
2022-08-14T04:50:54.232Z,94215.59
2022-08-14T04:51:56.054Z,94209.31
2022-08-14T04:52:53.935Z,94207.44
2022-08-14T04:53:53.227Z,94210.97
2022-08-14T04:54:49.941Z,94214.97
2022-08-14T04:55:51.658Z,94206.00
2022-08-14T04:56:48.505Z,94210.19
2022-08-14T04:57:47.833Z,94199.66
2022-08-14T04:58:47.954Z,94214.53
2022-08-14T04:59:44.673Z,94185.88
2022-08-14T05:00:41.561Z,94212.31
2022-08-14T05:01:49.044Z,94205.22
2022-08-14T05:02:47.642Z,94206.47
2022-08-14T05:03:44.529Z,94176.44
2022-08-14T05:04:45.144Z,94194.47
2022-08-14T05:05:58.245Z,94203.19
2022-08-14T05:06:55.544Z,94211.13
2022-08-14T05:08:01.227Z,94206.38
2022-08-14T05:08:59.976Z,94195.41
2022-08-14T05:09:57.193Z,94187.88
2022-08-14T05:10:57.037Z,94186.50
2022-08-14T05:11:54.113Z,94184.84
2022-08-14T05:13:14.349Z,94164.50
2022-08-14T05:14:17.078Z,94162.34
2022-08-14T05:15:29.515Z,94192.50
2022-08-14T05:16:31.123Z,94200.34
2022-08-14T05:17:34.761Z,94162.88
2022-08-14T05:19:17.948Z,94128.03
2022-08-14T05:21:10.992Z,94119.19
2022-08-14T05:21:57.146Z,94201.97
2022-08-14T05:22:31.519Z,94194.44
2022-08-14T05:23:31.774Z,94150.63
2022-08-14T05:24:29.234Z,94201.97
2022-08-14T05:25:31.053Z,94235.91
2022-08-14T05:26:31.129Z,94181.06
2022-08-14T05:27:31.044Z,94210.53
2022-08-14T05:28:31.172Z,94198.38
2022-08-14T05:29:29.570Z,94163.22
2022-08-14T05:30:27.324Z,94209.59
2022-08-14T05:31:24.373Z,94191.03
2022-08-14T05:32:36.434Z,94208.13
2022-08-14T05:33:35.879Z,94174.00
2022-08-14T05:34:32.633Z,94200.19
2022-08-14T05:35:30.987Z,94081.66
2022-08-14T05:36:30.183Z,94213.03
2022-08-14T05:37:29.735Z,94201.13
2022-08-14T05:38:35.334Z,94193.66
2022-08-14T05:39:32.201Z,94205.25
2022-08-14T05:40:28.994Z,94100.09
2022-08-14T05:41:43.646Z,94197.84
2022-08-14T05:42:42.696Z,94166.84
2022-08-14T05:43:51.061Z,94202.13
2022-08-14T05:44:48.084Z,94168.72
2022-08-14T05:45:46.270Z,94204.69
2022-08-14T05:46:43.018Z,94210.03
2022-08-14T05:47:41.691Z,94208.97
2022-08-14T05:48:42.974Z,94177.66
2022-08-14T05:49:40.322Z,94164.38
2022-08-14T05:50:38.107Z,94210.25
2022-08-14T05:51:34.885Z,94203.13
2022-08-14T05:52:39.061Z,94212.41
2022-08-14T05:53:36.298Z,94214.28
2022-08-14T05:54:39.090Z,94207.28
2022-08-14T05:55:36.882Z,94198.69
2022-08-14T05:56:41.176Z,94168.38
2022-08-14T05:58:01.047Z,94204.41
2022-08-14T05:58:57.797Z,94168.47
2022-08-14T05:59:57.449Z,94193.81
2022-08-14T06:00:57.541Z,94200.59
2022-08-14T06:01:54.393Z,94210.34
2022-08-14T06:02:52.552Z,94203.59
2022-08-14T06:03:49.618Z,94193.63
2022-08-14T06:04:51.373Z,94082.91
2022-08-14T06:05:51.949Z,94215.41
2022-08-14T06:06:48.812Z,94204.56
2022-08-14T06:07:45.549Z,94179.25
2022-08-14T06:08:42.321Z,94211.38
2022-08-14T06:09:40.398Z,94195.38
2022-08-14T06:10:37.664Z,94175.50
2022-08-14T06:11:34.737Z,94199.75
2022-08-14T06:12:56.586Z,94223.34
2022-08-14T06:13:50.207Z,94212.03
2022-08-14T06:14:48.955Z,94212.25
2022-08-14T06:15:46.982Z,94223.13
2022-08-14T06:16:45.218Z,94212.38
2022-08-14T06:17:47.195Z,94214.44
2022-08-14T06:18:55.573Z,94222.59
2022-08-14T06:19:56.449Z,94210.63
2022-08-14T06:20:54.459Z,94230.06
2022-08-14T06:21:58.238Z,94235.22
2022-08-14T06:22:56.355Z,94227.09
2022-08-14T06:23:53.595Z,94215.00
2022-08-14T06:24:50.513Z,94141.84
2022-08-14T06:25:52.775Z,94217.50
2022-08-14T06:26:54.233Z,94215.78
2022-08-14T06:28:03.942Z,94199.59
2022-08-14T06:29:00.855Z,94226.81
2022-08-14T06:29:58.037Z,94238.63
2022-08-14T06:30:55.897Z,94225.19
2022-08-14T06:31:54.584Z,94215.38
2022-08-14T06:32:57.858Z,94171.28
2022-08-14T06:35:02.807Z,94221.97
2022-08-14T06:35:14.805Z,94175.72
2022-08-14T06:36:13.769Z,94204.25
2022-08-14T06:37:17.098Z,94205.53
2022-08-14T06:38:23.235Z,94138.03
2022-08-14T06:39:36.791Z,94221.78
2022-08-14T06:40:36.744Z,94163.28
2022-08-14T06:41:57.681Z,94164.25
2022-08-14T06:43:00.389Z,94221.03
2022-08-14T06:44:00.015Z,94226.59
2022-08-14T06:45:01.404Z,94231.84
2022-08-14T06:46:01.039Z,94225.91
2022-08-14T06:47:03.852Z,94217.88
2022-08-14T06:48:01.339Z,94092.78
2022-08-14T06:48:58.117Z,94215.69
2022-08-14T06:49:58.200Z,94223.16
2022-08-14T06:50:57.959Z,94209.34
2022-08-14T06:51:55.679Z,94183.59
2022-08-14T06:52:52.477Z,94230.03
2022-08-14T06:53:49.255Z,94235.63
2022-08-14T06:54:46.490Z,94132.44
2022-08-14T06:55:57.943Z,94248.16
2022-08-14T06:56:57.111Z,94207.88
2022-08-14T06:57:54.009Z,94226.53
2022-08-14T06:58:51.103Z,94229.56
2022-08-14T06:59:48.427Z,94210.56
2022-08-14T07:01:05.680Z,94174.13
2022-08-14T07:02:20.982Z,94227.50
2022-08-14T07:03:37.970Z,94232.28
2022-08-14T07:04:54.765Z,94228.72
2022-08-14T07:05:57.871Z,94218.53
2022-08-14T07:06:59.455Z,94244.09
2022-08-14T07:07:58.151Z,94195.72
2022-08-14T07:08:55.442Z,94239.56
2022-08-14T07:09:52.153Z,94239.78
2022-08-14T07:10:53.278Z,94234.69
2022-08-14T07:11:52.031Z,94218.00
2022-08-14T07:12:56.623Z,94245.97
2022-08-14T07:13:59.103Z,94243.19
2022-08-14T07:15:01.006Z,94236.44
2022-08-14T07:16:00.476Z,94217.53
2022-08-14T07:17:02.028Z,94229.78
2022-08-14T07:18:01.197Z,94199.28
2022-08-14T07:18:58.087Z,94200.97
2022-08-14T07:19:55.464Z,94237.56
2022-08-14T07:20:54.774Z,94218.78
2022-08-14T07:21:52.092Z,94205.44
2022-08-14T07:22:56.517Z,94239.16
2022-08-14T07:23:53.896Z,94218.75
2022-08-14T07:24:50.620Z,94210.13
2022-08-14T07:25:48.643Z,94232.28
2022-08-14T07:26:48.250Z,94230.47
2022-08-14T07:27:45.161Z,94241.41
2022-08-14T07:28:43.024Z,94225.81
2022-08-14T07:29:40.549Z,94202.44
2022-08-14T07:30:37.589Z,94182.31
2022-08-14T07:31:38.970Z,94239.47
2022-08-14T07:32:35.794Z,94228.09
2022-08-14T07:33:35.946Z,94210.75
2022-08-14T07:34:40.685Z,94195.88
2022-08-14T07:35:57.817Z,94233.41
2022-08-14T07:37:00.793Z,94100.97
2022-08-14T07:37:58.265Z,94229.75
2022-08-14T07:38:56.097Z,94235.63
2022-08-14T07:39:52.986Z,94231.38
2022-08-14T07:40:53.000Z,94226.22
2022-08-14T07:41:50.509Z,94166.00
2022-08-14T07:42:47.247Z,94242.88
2022-08-14T07:43:55.637Z,94206.00
2022-08-14T07:44:52.811Z,94121.81
2022-08-14T07:45:53.808Z,94246.34
2022-08-14T07:46:50.859Z,94198.50
2022-08-14T07:47:47.594Z,94244.88
2022-08-14T07:48:44.777Z,94190.81
2022-08-14T07:50:02.489Z,94202.59
2022-08-14T07:51:03.279Z,94246.06
2022-08-14T07:52:08.186Z,94208.22
2022-08-14T07:53:06.877Z,94222.63
2022-08-14T07:54:11.152Z,94239.53
2022-08-14T07:55:09.628Z,94246.47
2022-08-14T07:56:21.705Z,94198.38
2022-08-14T07:57:24.866Z,94220.22
2022-08-14T07:58:34.033Z,94239.00
2022-08-14T07:59:41.862Z,94243.91
2022-08-14T08:00:40.102Z,94246.84
2022-08-14T08:01:48.246Z,94241.16
2022-08-14T08:02:55.799Z,94202.03
2022-08-14T08:04:00.093Z,94234.84
2022-08-14T08:05:00.608Z,94240.38
2022-08-14T08:05:58.133Z,94247.75
2022-08-14T08:06:55.844Z,94243.13
2022-08-14T08:07:54.124Z,94206.59
2022-08-14T08:08:58.857Z,94178.63
2022-08-14T08:10:01.118Z,94144.84
2022-08-14T08:11:03.245Z,94196.31
2022-08-14T08:12:09.497Z,94207.56
2022-08-14T08:13:17.302Z,94195.72
2022-08-14T08:14:17.437Z,94231.41
2022-08-14T08:15:15.459Z,94250.50
2022-08-14T08:16:13.652Z,94243.41
2022-08-14T08:17:12.919Z,94247.88
2022-08-14T08:18:20.635Z,94232.00
2022-08-14T08:19:26.244Z,94220.84
2022-08-14T08:20:41.540Z,94206.41
2022-08-14T08:21:48.946Z,94198.34
2022-08-14T08:22:47.859Z,94229.50
2022-08-14T08:23:51.532Z,94228.81
2022-08-14T08:24:50.446Z,94238.19
2022-08-14T08:25:50.285Z,94239.94
2022-08-14T08:26:50.296Z,94181.63
2022-08-14T08:28:08.941Z,94210.63
2022-08-14T08:29:28.242Z,94174.69
2022-08-14T08:30:27.270Z,94164.56
2022-08-14T08:31:29.026Z,94238.94
2022-08-14T08:32:41.942Z,94239.09
2022-08-14T08:33:39.290Z,94196.88
2022-08-14T08:34:49.841Z,94225.63
2022-08-14T08:35:50.602Z,94210.47
2022-08-14T08:36:47.737Z,94225.88
2022-08-14T08:37:45.756Z,94224.28
2022-08-14T08:39:14.771Z,94230.56
2022-08-14T08:40:03.422Z,94241.53
2022-08-14T08:41:01.266Z,94201.47
2022-08-14T08:41:58.389Z,94232.22
2022-08-14T08:42:55.159Z,94213.75
2022-08-14T08:44:05.513Z,94214.25
2022-08-14T08:45:02.569Z,94228.09
2022-08-14T08:46:02.252Z,94169.91
2022-08-14T08:47:01.509Z,94220.16
2022-08-14T08:48:00.333Z,94224.22
2022-08-14T08:50:00.103Z,94224.63
2022-08-14T08:51:03.415Z,94227.25
2022-08-14T08:52:05.313Z,94227.97
2022-08-14T08:53:05.211Z,94184.75
2022-08-14T08:54:11.850Z,94239.53
2022-08-14T08:55:15.115Z,94209.00
2022-08-14T08:56:11.904Z,94225.44
2022-08-14T08:57:27.095Z,94234.31
2022-08-14T08:58:25.099Z,94208.00
2022-08-14T08:59:31.083Z,94204.84
2022-08-14T09:00:34.299Z,94161.94
2022-08-14T09:01:32.968Z,94226.72
2022-08-14T09:02:29.770Z,94207.53
2022-08-14T09:03:30.152Z,94227.06
2022-08-14T09:04:28.789Z,94218.81
2022-08-14T09:05:26.486Z,94200.34
2022-08-14T09:07:00.915Z,94212.84
2022-08-14T09:07:39.937Z,94205.72
2022-08-14T09:08:38.478Z,94201.72
2022-08-14T09:09:54.347Z,94196.59
2022-08-14T09:10:56.405Z,94195.16
2022-08-14T09:11:55.349Z,94206.69
2022-08-14T09:12:52.573Z,94209.28
2022-08-14T09:13:52.868Z,94201.66
2022-08-14T09:14:53.218Z,94193.03
2022-08-14T09:15:50.068Z,94200.34
2022-08-14T09:16:50.512Z,94212.06
2022-08-14T09:17:47.582Z,94119.97
2022-08-14T09:18:46.863Z,94207.91
2022-08-14T09:19:46.858Z,94165.44
2022-08-14T09:20:49.385Z,94196.59
2022-08-14T09:21:46.871Z,94200.56
2022-08-14T09:22:47.623Z,94208.78
2022-08-14T09:24:26.377Z,94199.69
2022-08-14T09:25:07.552Z,94194.81
2022-08-14T09:26:05.168Z,94176.59
2022-08-14T09:27:22.393Z,94191.34
2022-08-14T09:28:20.684Z,94173.78
2022-08-14T09:29:23.364Z,94170.84
2022-08-14T09:30:32.621Z,94194.44
2022-08-14T09:31:42.896Z,94166.84
2022-08-14T09:33:11.601Z,94160.13
2022-08-14T09:34:30.794Z,94190.47
2022-08-14T09:35:56.566Z,94189.94
2022-08-14T09:37:33.194Z,94191.53
2022-08-14T09:38:50.944Z,94186.88
2022-08-14T09:40:24.919Z,94200.84
2022-08-14T09:42:21.049Z,94188.84
2022-08-14T09:43:41.737Z,94198.56
2022-08-14T09:45:16.731Z,94203.16
2022-08-14T09:46:17.020Z,94063.19
2022-08-14T09:47:18.754Z,94200.56
2022-08-14T09:48:18.721Z,94191.63
2022-08-14T09:49:16.621Z,94194.44
2022-08-14T09:50:16.868Z,94194.19
2022-08-14T09:51:25.986Z,94162.50
2022-08-14T09:52:33.870Z,94208.34
2022-08-14T09:54:19.208Z,94198.31
2022-08-14T09:55:02.762Z,94208.38
2022-08-14T09:56:01.798Z,94207.78
2022-08-14T09:56:59.666Z,94186.25
2022-08-14T09:58:19.674Z,94167.78
2022-08-14T09:59:22.339Z,94199.47
2022-08-14T10:00:44.202Z,94161.22
2022-08-14T10:01:41.692Z,94198.16
2022-08-14T10:02:45.628Z,94154.06
2022-08-14T10:03:52.427Z,94185.56
2022-08-14T10:05:10.115Z,94190.06
2022-08-14T10:06:11.978Z,94160.41
2022-08-14T10:07:10.158Z,94191.06
2022-08-14T10:08:26.272Z,94193.56
2022-08-14T10:09:24.718Z,94180.50
2022-08-14T10:10:39.302Z,94103.44
2022-08-14T10:11:38.331Z,94169.97
2022-08-14T10:12:44.844Z,94184.81
2022-08-14T10:13:52.805Z,94186.91
2022-08-14T10:14:53.382Z,94156.34
2022-08-14T10:15:51.394Z,94193.34
2022-08-14T10:16:52.597Z,94140.47
2022-08-14T10:18:17.291Z,94199.03
2022-08-14T10:19:16.783Z,94187.94
2022-08-14T10:20:39.656Z,94195.56
2022-08-14T10:21:58.672Z,94173.44
2022-08-14T10:23:11.909Z,94179.75
2022-08-14T10:24:11.386Z,94166.66
2022-08-14T10:25:17.344Z,94193.91
2022-08-14T10:26:22.676Z,94186.75
2022-08-14T10:27:26.730Z,94195.13
2022-08-14T10:28:51.638Z,94145.63
2022-08-14T10:29:51.609Z,94157.78
2022-08-14T10:30:54.170Z,94155.50
2022-08-14T10:31:59.410Z,94135.25
2022-08-14T10:32:56.313Z,94142.41
2022-08-14T10:34:12.855Z,94161.69
2022-08-14T10:35:14.213Z,94183.53
2022-08-14T10:36:19.757Z,94199.00
2022-08-14T10:37:39.944Z,94176.78
2022-08-14T10:38:37.334Z,94180.50
2022-08-14T10:39:36.548Z,94190.31
2022-08-14T10:40:44.068Z,94163.19
2022-08-14T10:41:59.716Z,94156.72
2022-08-14T10:42:58.845Z,94162.28
2022-08-14T10:44:20.873Z,94167.75
2022-08-14T10:45:21.318Z,94154.59
2022-08-14T10:47:36.520Z,94123.56
2022-08-14T10:48:07.100Z,94143.66
2022-08-14T10:49:06.450Z,94116.00
2022-08-14T10:50:04.149Z,94100.69
2022-08-14T10:51:01.641Z,94150.06
2022-08-14T10:52:08.463Z,94148.13
2022-08-14T10:53:05.597Z,94144.34
2022-08-14T10:54:16.315Z,94127.63
2022-08-14T10:55:19.399Z,94145.72
2022-08-14T10:56:21.379Z,94121.56
2022-08-14T10:57:30.328Z,94115.81
2022-08-14T10:58:34.233Z,94130.31
2022-08-14T11:00:01.439Z,94128.28
2022-08-14T11:01:01.004Z,94129.66
2022-08-14T11:01:59.820Z,94117.13
2022-08-14T11:03:15.714Z,94113.16
2022-08-14T11:04:30.700Z,94121.47
2022-08-14T11:05:40.494Z,94123.53
2022-08-14T11:06:38.705Z,94135.88
2022-08-14T11:07:40.542Z,94119.94
2022-08-14T11:08:40.283Z,94147.13
2022-08-14T11:09:41.728Z,94126.41
2022-08-14T11:10:54.391Z,94125.53
2022-08-14T11:12:33.199Z,94114.56
2022-08-14T11:13:21.387Z,94115.16
2022-08-14T11:14:22.619Z,94068.91
2022-08-14T11:15:23.469Z,94088.91
2022-08-14T11:16:21.313Z,94118.06
2022-08-14T11:17:21.614Z,94076.78
2022-08-14T11:18:20.535Z,94109.03
2022-08-14T11:19:27.316Z,94086.59
2022-08-14T11:20:29.878Z,94098.00
2022-08-14T11:21:30.272Z,94076.41
2022-08-14T11:22:55.674Z,94103.22
2022-08-14T11:23:53.403Z,94094.88
2022-08-14T11:24:55.659Z,94080.63
2022-08-14T11:25:53.785Z,94104.31
2022-08-14T11:26:51.817Z,94097.81
2022-08-14T11:27:54.996Z,94095.91
2022-08-14T11:28:53.653Z,94113.69
2022-08-14T11:30:00.533Z,94104.00
2022-08-14T11:31:13.998Z,94094.97
2022-08-14T11:32:10.899Z,94095.09
2022-08-14T11:33:09.145Z,94066.34
2022-08-14T11:34:10.255Z,94103.19
2022-08-14T11:35:26.567Z,94096.72
2022-08-14T11:37:02.313Z,94104.13
2022-08-14T11:38:06.075Z,94105.47
2022-08-14T11:39:04.157Z,94103.75
2022-08-14T11:40:16.209Z,94098.81
2022-08-14T11:41:17.226Z,94116.22
2022-08-14T11:42:57.805Z,94118.81
2022-08-14T11:43:57.848Z,94056.53
2022-08-14T11:45:04.288Z,94033.13
2022-08-14T11:46:03.562Z,94124.81
2022-08-14T11:47:06.916Z,94113.91
2022-08-14T11:49:03.521Z,94087.72
2022-08-14T11:49:42.963Z,94100.28
2022-08-14T11:50:40.157Z,94054.63
2022-08-14T11:51:52.951Z,94109.06
2022-08-14T11:52:53.798Z,94049.44
2022-08-14T11:54:05.472Z,94109.69
2022-08-14T11:55:02.285Z,94094.09
2022-08-14T11:56:04.389Z,94109.31
2022-08-14T11:57:05.173Z,94124.34
2022-08-14T11:58:08.772Z,94084.81
2022-08-14T11:59:10.329Z,94090.03
2022-08-14T12:00:14.899Z,93984.09
2022-08-14T12:01:16.791Z,94094.13
2022-08-14T12:03:00.636Z,94089.84
2022-08-14T12:03:46.599Z,94084.31
2022-08-14T12:04:53.854Z,94071.38
2022-08-14T12:05:51.682Z,94067.41
2022-08-14T12:06:53.838Z,94091.94
2022-08-14T12:07:50.583Z,94095.69
2022-08-14T12:08:52.591Z,94085.22
2022-08-14T12:09:56.241Z,94084.78
2022-08-14T12:10:57.177Z,94095.38
2022-08-14T12:11:54.739Z,94097.47
2022-08-14T12:12:56.492Z,94076.28
2022-08-14T12:13:56.010Z,94114.06
2022-08-14T12:15:00.112Z,94028.84
2022-08-14T12:16:11.228Z,94068.63
2022-08-14T12:17:17.830Z,94002.44
2022-08-14T12:18:34.389Z,94093.03
2022-08-14T12:19:33.762Z,94099.03
2022-08-14T12:20:36.247Z,94096.31
2022-08-14T12:21:33.270Z,93998.66
2022-08-14T12:22:40.245Z,94005.91
2022-08-14T12:23:40.146Z,94095.06
2022-08-14T12:24:40.245Z,94086.53
2022-08-14T12:25:37.899Z,94091.00
2022-08-14T12:26:40.734Z,94091.75
2022-08-14T12:27:53.514Z,94024.38
2022-08-14T12:28:59.273Z,94073.59